Time;durP1;ratioP1;P1;durP2;ratioP2;P2;SDS_P1;SDS_P2;PMS_P1;PMS_P2;Temp;Humidity;BMP_temperature;BMP_pressure;BME280_temperature;BME280_humidity;BME280_pressure;Samples;Min_cycle;Max_cycle;Signal;HPM_P1;HPM_P2
2023/04/23 00:01:26;;;;;;;46.42;28.00;;;9.90;99.90;;;;;;5073998;28;20407;-66
2023/04/23 00:03:56;;;;;;;41.92;27.77;;;9.90;99.90;;;;;;5056091;28;20522;-67
2023/04/23 00:06:25;;;;;;;41.13;27.48;;;9.90;99.90;;;;;;5073971;28;20044;-66
2023/04/23 00:08:52;;;;;;;43.10;29.52;;;9.90;99.90;;;;;;5074160;28;20044;-67
2023/04/23 00:11:18;;;;;;;48.80;30.45;;;9.90;99.90;;;;;;5073983;28;20072;-67
2023/04/23 00:13:45;;;;;;;49.58;30.67;;;9.80;99.90;;;;;;5074066;28;20068;-67
2023/04/23 00:16:12;;;;;;;48.95;30.50;;;9.80;99.90;;;;;;5073653;28;20569;-67
2023/04/23 00:18:38;;;;;;;56.55;33.17;;;9.80;99.90;;;;;;5055759;28;20124;-67
2023/04/23 00:21:03;;;;;;;56.13;33.92;;;9.80;99.90;;;;;;5055739;28;20123;-67
2023/04/23 00:23:29;;;;;;;48.90;30.55;;;9.70;99.90;;;;;;5073876;28;20032;-67
2023/04/23 00:25:55;;;;;;;56.97;31.90;;;9.70;99.90;;;;;;5073564;28;20037;-67
2023/04/23 00:28:20;;;;;;;51.78;32.90;;;9.70;99.90;;;;;;5073720;28;20123;-67
2023/04/23 00:30:46;;;;;;;47.78;31.27;;;9.70;99.90;;;;;;5073593;28;20051;-66
2023/04/23 00:33:11;;;;;;;52.92;31.70;;;9.60;99.90;;;;;;5073544;28;20126;-67
2023/04/23 00:35:37;;;;;;;51.42;31.52;;;9.60;99.90;;;;;;5073379;28;20047;-67
2023/04/23 00:38:02;;;;;;;52.95;31.83;;;9.70;99.90;;;;;;5073285;28;20107;-67
2023/04/23 00:40:28;;;;;;;50.08;30.67;;;9.60;99.90;;;;;;5073186;28;20454;-66
2023/04/23 00:42:55;;;;;;;47.38;28.67;;;9.60;99.90;;;;;;5073264;28;20515;-67
2023/04/23 00:45:21;;;;;;;45.90;28.70;;;9.60;99.90;;;;;;5073015;28;20052;-67
2023/04/23 00:47:48;;;;;;;51.13;30.10;;;9.60;99.90;;;;;;5054718;28;20041;-67
2023/04/23 00:50:13;;;;;;;45.80;29.40;;;9.60;99.90;;;;;;5073083;28;20116;-66
2023/04/23 00:52:39;;;;;;;47.70;30.13;;;9.60;99.90;;;;;;5055102;28;20499;-67
2023/04/23 00:55:07;;;;;;;43.13;27.67;;;9.50;99.90;;;;;;5073060;28;20037;-67
2023/04/23 00:57:37;;;;;;;44.30;28.38;;;9.60;99.90;;;;;;5072966;28;20055;-67
2023/04/23 01:00:07;;;;;;;41.85;28.20;;;9.60;99.90;;;;;;5072597;28;20498;-67
2023/04/23 01:02:35;;;;;;;44.20;28.70;;;9.60;99.90;;;;;;5055568;28;20082;-67
2023/04/23 01:05:03;;;;;;;39.03;27.15;;;9.60;99.90;;;;;;5072773;28;20076;-67
2023/04/23 01:07:32;;;;;;;42.22;26.80;;;9.60;99.90;;;;;;5072751;28;20078;-67
2023/04/23 01:09:57;;;;;;;39.22;24.73;;;9.50;99.90;;;;;;5054684;28;20040;-66
2023/04/23 01:12:23;;;;;;;43.72;27.73;;;9.50;99.90;;;;;;5054922;28;20109;-67
2023/04/23 01:14:49;;;;;;;45.25;28.98;;;9.50;99.90;;;;;;5072379;28;20404;-67
2023/04/23 01:17:15;;;;;;;43.22;28.27;;;9.40;99.90;;;;;;5072787;28;20036;-66
2023/04/23 01:19:41;;;;;;;42.20;26.20;;;9.40;99.90;;;;;;5072159;28;20134;-67
2023/04/23 01:22:13;;;;;;;43.80;27.27;;;9.50;99.90;;;;;;5072450;28;20062;-66
2023/04/23 01:24:39;;;;;;;45.95;28.42;;;9.40;99.90;;;;;;5072523;28;20047;-67
2023/04/23 01:27:06;;;;;;;45.25;26.10;;;9.40;99.90;;;;;;5054517;28;20072;-67
2023/04/23 01:29:33;;;;;;;40.10;25.38;;;9.40;99.90;;;;;;5072401;28;20113;-66
2023/04/23 01:31:59;;;;;;;45.58;27.45;;;9.40;99.90;;;;;;5072467;28;20631;-66
2023/04/23 01:34:24;;;;;;;44.05;27.73;;;9.30;99.90;;;;;;5054853;28;20082;-67
2023/04/23 01:36:51;;;;;;;47.63;28.10;;;9.30;99.90;;;;;;5072173;28;20476;-67
2023/04/23 01:39:17;;;;;;;41.83;27.10;;;9.30;99.90;;;;;;5071905;28;20032;-67
2023/04/23 01:41:43;;;;;;;44.38;27.17;;;9.30;99.90;;;;;;5072022;28;20047;-66
2023/04/23 01:44:09;;;;;;;41.85;26.67;;;9.20;99.90;;;;;;5072118;28;20040;-67
2023/04/23 01:46:35;;;;;;;46.92;28.83;;;9.20;99.90;;;;;;5072054;28;20033;-67
2023/04/23 01:49:01;;;;;;;42.17;27.00;;;9.20;99.90;;;;;;5072066;28;20037;-66
2023/04/23 01:51:28;;;;;;;42.88;26.65;;;9.30;99.90;;;;;;5071857;28;20066;-67
2023/04/23 01:53:53;;;;;;;42.92;26.00;;;9.30;99.90;;;;;;5071815;28;20052;-66
2023/04/23 01:56:24;;;;;;;42.55;25.85;;;9.20;99.90;;;;;;5071386;28;20063;-66
2023/04/23 01:58:50;;;;;;;42.10;27.85;;;9.20;99.90;;;;;;5071862;28;20500;-67
2023/04/23 02:01:16;;;;;;;43.03;27.40;;;9.20;99.90;;;;;;5071602;28;20496;-67
2023/04/23 02:03:41;;;;;;;37.50;23.90;;;9.20;99.90;;;;;;5071952;28;20043;-66
2023/04/23 02:06:07;;;;;;;43.90;27.50;;;9.20;99.90;;;;;;5071739;28;20036;-67
2023/04/23 02:08:32;;;;;;;40.72;24.77;;;9.20;99.90;;;;;;5071906;28;20068;-67
2023/04/23 02:10:58;;;;;;;42.15;26.40;;;9.20;99.90;;;;;;5070234;28;20048;-67
2023/04/23 02:13:24;;;;;;;41.13;26.13;;;9.10;99.90;;;;;;5070655;28;20098;-67
2023/04/23 02:15:49;;;;;;;40.58;25.58;;;9.10;99.90;;;;;;5071008;28;20044;-67
2023/04/23 02:18:15;;;;;;;41.25;25.45;;;9.00;99.90;;;;;;5071393;28;20047;-67
2023/04/23 02:20:40;;;;;;;41.22;26.13;;;9.00;99.90;;;;;;5071218;28;20044;-67
2023/04/23 02:23:07;;;;;;;39.50;23.58;;;9.00;99.90;;;;;;5071691;28;20040;-66
2023/04/23 02:25:33;;;;;;;43.50;27.10;;;8.90;99.90;;;;;;5071478;28;20171;-67
2023/04/23 02:28:00;;;;;;;41.03;25.33;;;8.90;99.90;;;;;;5071475;28;20496;-67
2023/04/23 02:30:26;;;;;;;50.17;29.38;;;8.90;99.90;;;;;;5071238;28;20049;-66
2023/04/23 02:32:52;;;;;;;48.45;30.40;;;8.90;99.90;;;;;;5071524;28;20105;-67
2023/04/23 02:35:17;;;;;;;44.75;27.42;;;8.80;99.90;;;;;;5071501;28;20509;-67
2023/04/23 02:37:43;;;;;;;45.33;27.75;;;8.80;99.90;;;;;;5071439;28;20044;-66
2023/04/23 02:40:09;;;;;;;43.97;27.10;;;8.80;99.90;;;;;;5071219;28;20041;-67
2023/04/23 02:42:34;;;;;;;46.85;30.45;;;8.80;99.90;;;;;;5071674;28;20044;-67
2023/04/23 02:45:00;;;;;;;50.97;29.25;;;8.70;99.90;;;;;;5071497;28;20504;-66
2023/04/23 02:47:26;;;;;;;44.42;27.55;;;8.70;99.90;;;;;;5071360;28;20074;-66
2023/04/23 02:49:52;;;;;;;44.50;26.67;;;8.70;99.90;;;;;;5071443;28;20140;-67
2023/04/23 02:52:17;;;;;;;45.15;28.00;;;8.60;99.90;;;;;;5071447;28;20048;-67
2023/04/23 02:54:43;;;;;;;44.85;28.15;;;8.60;99.90;;;;;;5071256;28;20036;-67
2023/04/23 02:57:09;;;;;;;44.67;27.38;;;8.60;99.90;;;;;;5070965;28;20722;-67
2023/04/23 02:59:34;;;;;;;43.85;27.48;;;8.60;99.90;;;;;;5070727;28;20039;-67
2023/04/23 03:02:00;;;;;;;44.40;27.08;;;8.50;99.90;;;;;;5071074;28;20039;-67
2023/04/23 03:04:26;;;;;;;52.55;29.45;;;8.50;99.90;;;;;;5071257;28;20037;-67
2023/04/23 03:06:52;;;;;;;45.13;26.95;;;8.50;99.90;;;;;;5071039;28;20037;-67
2023/04/23 03:09:17;;;;;;;44.03;27.85;;;8.50;99.90;;;;;;5071053;28;20037;-67
2023/04/23 03:11:43;;;;;;;47.50;29.35;;;8.40;99.90;;;;;;5053227;28;20045;-67
2023/04/23 03:14:08;;;;;;;52.92;28.40;;;8.30;99.90;;;;;;5071337;28;20101;-67
2023/04/23 03:16:34;;;;;;;45.17;27.30;;;8.30;99.90;;;;;;5070972;28;20041;-67
2023/04/23 03:19:00;;;;;;;46.58;28.48;;;8.30;99.90;;;;;;5070727;28;20060;-67
2023/04/23 03:21:26;;;;;;;45.17;28.73;;;8.20;99.90;;;;;;5071161;28;20064;-67
2023/04/23 03:23:51;;;;;;;52.13;31.45;;;8.20;99.90;;;;;;5073684;28;20120;-67
2023/04/23 03:26:17;;;;;;;49.75;31.65;;;8.30;99.90;;;;;;5074319;28;20036;-67
2023/04/23 03:28:42;;;;;;;55.60;32.92;;;8.30;99.90;;;;;;5074967;28;20036;-67
2023/04/23 03:31:08;;;;;;;51.90;32.35;;;8.30;99.90;;;;;;5074407;28;20037;-67
2023/04/23 03:33:33;;;;;;;55.30;33.15;;;8.30;99.90;;;;;;5074783;28;20036;-67
2023/04/23 03:35:59;;;;;;;54.30;31.60;;;8.20;99.90;;;;;;5074449;28;20037;-67
2023/04/23 03:38:24;;;;;;;51.65;32.58;;;8.20;99.90;;;;;;5074628;28;20411;-67
2023/04/23 03:40:50;;;;;;;58.38;31.73;;;8.20;99.90;;;;;;5074144;28;20638;-66
2023/04/23 03:43:16;;;;;;;52.78;32.22;;;8.20;99.90;;;;;;5074689;28;20033;-67
2023/04/23 03:45:41;;;;;;;58.50;34.00;;;8.20;99.90;;;;;;5074445;28;20040;-67
2023/04/23 03:48:06;;;;;;;53.42;30.58;;;8.10;99.90;;;;;;5074389;28;20052;-67
2023/04/23 03:50:37;;;;;;;60.50;31.70;;;8.10;99.90;;;;;;5074241;28;20048;-67
2023/04/23 03:53:03;;;;;;;57.13;32.28;;;8.10;99.90;;;;;;5074315;28;20044;-67
2023/04/23 03:55:29;;;;;;;59.15;32.95;;;8.00;99.90;;;;;;5074366;28;20048;-66
2023/04/23 03:57:54;;;;;;;58.67;32.88;;;8.10;99.90;;;;;;5074324;28;20052;-66
2023/04/23 04:00:20;;;;;;;64.45;34.10;;;8.10;99.90;;;;;;5074127;28;20502;-67
2023/04/23 04:02:46;;;;;;;63.95;34.08;;;8.10;99.90;;;;;;5074156;28;20037;-66
2023/04/23 04:05:12;;;;;;;57.40;32.72;;;8.10;99.90;;;;;;5073721;28;20052;-66
2023/04/23 04:07:37;;;;;;;59.17;34.47;;;8.10;99.90;;;;;;5073666;28;20083;-66
2023/04/23 04:10:04;;;;;;;64.85;36.47;;;8.10;99.90;;;;;;5073329;28;20044;-66
2023/04/23 04:12:30;;;;;;;64.85;35.72;;;8.10;99.90;;;;;;5055983;28;20420;-67
2023/04/23 04:14:56;;;;;;;64.20;36.00;;;8.10;99.90;;;;;;5073824;28;20048;-67
2023/04/23 04:17:21;;;;;;;65.03;35.78;;;8.10;99.90;;;;;;5073804;28;20047;-66
2023/04/23 04:19:47;;;;;;;67.00;35.63;;;8.10;99.90;;;;;;5073638;28;20048;-67
2023/04/23 04:22:13;;;;;;;68.20;36.10;;;8.10;99.90;;;;;;5073748;28;20111;-67
2023/04/23 04:24:40;;;;;;;69.53;36.35;;;8.10;99.90;;;;;;5073520;28;20447;-67
2023/04/23 04:27:06;;;;;;;72.25;37.10;;;8.00;99.90;;;;;;5073465;28;20452;-67
2023/04/23 04:29:32;;;;;;;69.90;35.13;;;8.00;99.90;;;;;;5073579;28;20079;-66
2023/04/23 04:31:58;;;;;;;81.05;39.60;;;8.00;99.90;;;;;;5073700;28;20202;-66
2023/04/23 04:34:24;;;;;;;74.15;40.15;;;8.00;99.90;;;;;;5072945;28;20055;-66
2023/04/23 04:36:52;;;;;;;81.35;40.75;;;8.00;99.90;;;;;;5073065;28;20041;-67
2023/04/23 04:39:18;;;;;;;84.28;41.25;;;8.10;99.90;;;;;;5073331;28;20044;-67
2023/04/23 04:41:44;;;;;;;82.25;42.45;;;8.10;99.90;;;;;;5073271;28;20512;-67
2023/04/23 04:44:10;;;;;;;82.75;43.92;;;8.00;99.90;;;;;;5073309;28;20068;-67
2023/04/23 04:46:39;;;;;;;93.97;44.55;;;8.00;99.90;;;;;;5073009;28;20111;-67
2023/04/23 04:49:07;;;;;;;96.07;45.65;;;8.10;99.90;;;;;;5073190;28;20089;-67
2023/04/23 04:51:32;;;;;;;108.63;44.10;;;8.10;99.90;;;;;;5073057;28;20524;-67
2023/04/23 04:53:58;;;;;;;116.72;47.75;;;8.00;99.90;;;;;;5073323;28;20044;-67
2023/04/23 04:56:24;;;;;;;135.48;48.75;;;8.00;99.90;;;;;;5073005;28;20052;-67
2023/04/23 04:58:50;;;;;;;109.03;46.75;;;8.00;99.90;;;;;;5073115;28;20055;-67
2023/04/23 05:01:17;;;;;;;87.22;44.28;;;8.00;99.90;;;;;;5072838;28;20044;-67
2023/04/23 05:03:43;;;;;;;105.78;49.50;;;8.10;99.90;;;;;;5072768;28;20087;-67
2023/04/23 05:06:08;;;;;;;123.90;46.33;;;8.10;99.90;;;;;;5072616;28;20064;-67
2023/04/23 05:08:34;;;;;;;104.63;47.35;;;8.10;99.90;;;;;;5073127;28;20044;-67
2023/04/23 05:11:00;;;;;;;94.25;47.20;;;8.10;99.90;;;;;;5072646;28;20041;-67
2023/04/23 05:13:26;;;;;;;167.68;49.35;;;8.10;99.90;;;;;;5072527;28;20102;-67
2023/04/23 05:15:51;;;;;;;98.60;47.50;;;8.10;99.90;;;;;;5072424;28;20044;-66
2023/04/23 05:18:17;;;;;;;112.20;49.38;;;8.20;99.90;;;;;;5072487;28;20052;-67
2023/04/23 05:20:42;;;;;;;116.18;52.42;;;8.30;99.90;;;;;;5072278;28;20075;-67
2023/04/23 05:23:08;;;;;;;119.53;51.30;;;8.40;99.90;;;;;;5072709;28;20036;-67
2023/04/23 05:25:34;;;;;;;118.65;53.20;;;8.40;99.90;;;;;;5072409;28;20116;-67
2023/04/23 05:28:00;;;;;;;143.75;54.08;;;8.40;99.90;;;;;;5072456;28;20044;-67
2023/04/23 05:30:26;;;;;;;144.13;59.75;;;8.40;99.90;;;;;;5072502;28;20047;-67
2023/04/23 05:32:51;;;;;;;132.13;59.95;;;8.40;99.90;;;;;;5054329;28;20530;-67
2023/04/23 05:35:17;;;;;;;135.57;58.72;;;8.40;99.90;;;;;;5072147;28;20048;-67
2023/04/23 05:37:43;;;;;;;153.30;63.58;;;8.40;99.90;;;;;;5072344;28;20552;-67
2023/04/23 05:40:09;;;;;;;149.13;62.28;;;8.50;99.90;;;;;;5072105;28;20046;-68
2023/04/23 05:42:35;;;;;;;135.82;58.55;;;8.50;99.90;;;;;;5072252;28;20036;-67
2023/04/23 05:45:01;;;;;;;143.38;61.28;;;8.50;99.90;;;;;;5072097;28;20123;-67
2023/04/23 05:47:27;;;;;;;146.30;64.00;;;8.60;99.90;;;;;;5071190;28;20150;-67
2023/04/23 05:49:52;;;;;;;156.15;64.55;;;8.60;99.90;;;;;;5071917;28;20043;-67
2023/04/23 05:52:18;;;;;;;170.48;66.72;;;8.70;99.90;;;;;;5054076;28;20412;-68
2023/04/23 05:54:44;;;;;;;134.20;60.13;;;8.70;99.90;;;;;;5072006;28;20484;-67
2023/04/23 05:57:11;;;;;;;134.77;60.78;;;8.70;99.90;;;;;;5071884;28;20035;-67
2023/04/23 05:59:36;;;;;;;146.82;64.20;;;8.70;99.90;;;;;;5071713;28;20120;-67
2023/04/23 06:02:02;;;;;;;147.63;62.67;;;8.80;99.90;;;;;;5071396;28;20127;-67
2023/04/23 06:04:27;;;;;;;149.02;65.32;;;8.80;99.90;;;;;;5071747;28;20116;-67
2023/04/23 06:06:53;;;;;;;144.10;63.22;;;8.90;99.90;;;;;;5071879;28;20067;-67
2023/04/23 06:09:19;;;;;;;143.73;65.30;;;9.00;99.90;;;;;;5071596;28;20044;-67
2023/04/23 06:11:44;;;;;;;149.25;64.13;;;9.00;99.90;;;;;;5071834;28;20042;-68
2023/04/23 06:14:10;;;;;;;141.35;63.03;;;9.00;99.90;;;;;;5071877;28;20039;-67
2023/04/23 06:16:35;;;;;;;133.82;60.63;;;9.20;99.90;;;;;;5071295;28;20040;-67
2023/04/23 06:19:02;;;;;;;129.75;58.28;;;9.20;99.90;;;;;;5071292;28;20116;-68
2023/04/23 06:21:28;;;;;;;122.30;57.05;;;9.30;99.90;;;;;;5071058;28;20563;-67
2023/04/23 06:23:54;;;;;;;115.97;56.70;;;9.40;99.90;;;;;;5071451;28;20124;-68
2023/04/23 06:26:19;;;;;;;114.35;53.58;;;9.50;99.90;;;;;;5071474;28;20488;-67
2023/04/23 06:28:45;;;;;;;120.30;57.22;;;9.80;99.90;;;;;;5053820;28;20041;-67
2023/04/23 06:31:12;;;;;;;115.85;56.75;;;9.80;99.90;;;;;;5053554;28;20041;-67
2023/04/23 06:33:37;;;;;;;105.25;53.67;;;9.90;99.90;;;;;;5071343;28;20047;-67
2023/04/23 06:36:03;;;;;;;112.55;55.15;;;10.00;99.90;;;;;;5071602;28;20040;-67
2023/04/23 06:38:29;;;;;;;99.80;50.58;;;10.10;99.90;;;;;;5071473;28;20048;-67
2023/04/23 06:40:55;;;;;;;102.60;52.13;;;10.30;99.90;;;;;;5071094;28;20037;-67
2023/04/23 06:43:20;;;;;;;102.35;50.30;;;10.50;99.90;;;;;;5071512;28;20423;-67
2023/04/23 06:45:46;;;;;;;100.28;51.92;;;10.80;99.90;;;;;;5069264;28;20102;-67
2023/04/23 06:48:12;;;;;;;100.00;51.35;;;11.10;99.90;;;;;;5070042;28;20045;-67
2023/04/23 06:50:39;;;;;;;91.72;49.17;;;11.20;99.90;;;;;;5065100;28;20052;-67
2023/04/23 06:53:04;;;;;;;94.78;47.97;;;11.50;99.90;;;;;;5069600;28;20501;-68
2023/04/23 06:55:30;;;;;;;85.68;47.03;;;11.70;99.90;;;;;;5070647;28;20032;-67
2023/04/23 06:57:56;;;;;;;81.35;45.50;;;11.90;99.90;;;;;;5072520;28;20036;-67
2023/04/23 07:00:22;;;;;;;78.38;43.13;;;12.10;99.90;;;;;;5075210;28;20067;-67
2023/04/23 07:02:48;;;;;;;77.85;42.95;;;12.30;99.90;;;;;;5075196;28;20395;-67
2023/04/23 07:05:14;;;;;;;76.18;42.78;;;12.50;99.90;;;;;;5075375;28;20036;-68
2023/04/23 07:07:41;;;;;;;74.93;43.65;;;12.70;99.90;;;;;;5075236;28;20440;-68
2023/04/23 07:10:08;;;;;;;85.70;44.13;;;12.80;99.90;;;;;;5075191;28;20045;-67
2023/04/23 07:12:35;;;;;;;71.93;41.47;;;13.10;99.90;;;;;;5057167;28;20052;-68
2023/04/23 07:15:00;;;;;;;65.85;39.30;;;13.30;99.90;;;;;;5074948;28;20044;-67
2023/04/23 07:17:26;;;;;;;72.20;40.33;;;13.50;99.90;;;;;;5074724;28;20045;-68
2023/04/23 07:19:51;;;;;;;69.57;38.88;;;13.80;99.90;;;;;;5074948;28;20051;-67
2023/04/23 07:22:17;;;;;;;67.78;38.95;;;13.70;99.90;;;;;;5074935;28;20029;-68
2023/04/23 07:24:43;;;;;;;67.35;38.30;;;13.80;99.90;;;;;;5074646;28;20068;-67
2023/04/23 07:27:08;;;;;;;66.22;38.20;;;13.50;99.90;;;;;;5074745;28;20086;-67
2023/04/23 07:29:34;;;;;;;63.22;37.75;;;13.70;99.90;;;;;;5074715;28;20094;-67
2023/04/23 07:31:59;;;;;;;66.93;39.60;;;13.90;99.90;;;;;;5056736;28;20040;-67
2023/04/23 07:34:25;;;;;;;58.40;36.72;;;14.00;99.90;;;;;;5074890;28;20101;-67
2023/04/23 07:36:51;;;;;;;57.88;35.83;;;14.20;99.90;;;;;;5074600;28;20039;-67
2023/04/23 07:39:17;;;;;;;57.70;36.25;;;14.50;99.90;;;;;;5074510;28;20051;-67
2023/04/23 07:41:42;;;;;;;54.55;36.45;;;14.70;99.90;;;;;;5074532;28;20049;-67
2023/04/23 07:44:08;;;;;;;50.72;32.25;;;14.90;99.90;;;;;;5074569;28;20072;-67
2023/04/23 07:46:33;;;;;;;48.72;31.27;;;15.10;99.90;;;;;;5074200;28;20033;-67
2023/04/23 07:48:59;;;;;;;48.92;31.40;;;15.40;99.90;;;;;;5074553;28;20044;-67
2023/04/23 07:51:25;;;;;;;48.45;31.90;;;15.50;99.90;;;;;;5074569;28;20507;-67
2023/04/23 07:53:55;;;;;;;48.20;32.13;;;15.40;99.90;;;;;;5074340;28;20075;-67
2023/04/23 07:56:21;;;;;;;47.63;30.05;;;15.60;99.90;;;;;;5074098;28;20056;-67
2023/04/23 07:58:47;;;;;;;48.88;29.77;;;15.50;99.90;;;;;;5071452;28;20503;-68
2023/04/23 08:01:13;;;;;;;46.47;30.70;;;15.50;99.90;;;;;;5073427;28;20083;-68
2023/04/23 08:03:38;;;;;;;43.28;29.45;;;15.60;99.90;;;;;;5074113;28;20037;-68
2023/04/23 08:06:04;;;;;;;41.85;27.52;;;16.00;99.90;;;;;;5073817;28;20028;-68
2023/04/23 08:08:29;;;;;;;38.38;28.40;;;16.20;99.90;;;;;;5074098;28;20549;-68
2023/04/23 08:10:55;;;;;;;40.67;28.60;;;16.50;99.90;;;;;;5072885;28;20458;-68
2023/04/23 08:13:21;;;;;;;46.25;28.92;;;16.60;99.90;;;;;;5073777;28;20408;-68
2023/04/23 08:15:47;;;;;;;41.70;25.73;;;16.80;99.90;;;;;;5073562;28;20040;-68
2023/04/23 08:18:13;;;;;;;40.58;27.25;;;17.10;99.90;;;;;;5073701;28;20079;-68
2023/04/23 08:20:39;;;;;;;38.30;25.45;;;17.10;99.90;;;;;;5073686;28;20072;-68
2023/04/23 08:23:05;;;;;;;40.63;27.30;;;17.10;99.90;;;;;;5073740;28;20032;-68
2023/04/23 08:25:31;;;;;;;36.15;25.65;;;17.20;99.90;;;;;;5073381;28;20032;-67
2023/04/23 08:27:57;;;;;;;34.47;24.50;;;17.30;99.90;;;;;;5073477;28;20036;-68
2023/04/23 08:30:23;;;;;;;36.28;26.27;;;17.50;99.90;;;;;;5073262;28;20113;-68
2023/04/23 08:32:52;;;;;;;35.55;24.17;;;17.60;99.90;;;;;;5073289;28;20485;-67
2023/04/23 08:35:18;;;;;;;36.00;24.40;;;17.80;99.90;;;;;;5073119;28;20428;-67
2023/04/23 08:37:44;;;;;;;35.28;25.73;;;17.70;99.90;;;;;;5073106;28;20041;-67
2023/04/23 08:40:10;;;;;;;36.38;25.63;;;17.70;99.90;;;;;;5072898;28;20098;-69
2023/04/23 08:42:44;;;;;;;35.47;24.63;;;17.90;99.90;;;;;;5073238;28;20032;-68
2023/04/23 08:45:11;;;;;;;36.45;25.38;;;18.10;99.90;;;;;;5073091;28;20097;-68
2023/04/23 08:47:41;;;;;;;35.10;25.25;;;18.10;99.90;;;;;;5073175;28;20043;-68
2023/04/23 08:50:09;;;;;;;31.40;22.42;;;18.30;99.90;;;;;;5072883;28;20170;-68
2023/04/23 08:52:40;;;;;;;33.40;23.17;;;18.40;99.90;;;;;;5073011;28;20519;-68
2023/04/23 08:55:10;;;;;;;29.77;21.85;;;18.50;99.90;;;;;;5072610;28;20071;-68
2023/04/23 08:57:40;;;;;;;30.25;22.52;;;18.40;99.90;;;;;;5055730;28;20056;-68
2023/04/23 09:00:10;;;;;;;27.67;20.42;;;18.50;99.90;;;;;;5072916;28;20127;-68
2023/04/23 09:02:38;;;;;;;26.55;19.92;;;18.50;99.90;;;;;;5072772;28;20043;-68
2023/04/23 09:05:04;;;;;;;30.95;21.95;;;18.80;99.90;;;;;;5072678;28;20086;-68
2023/04/23 09:07:30;;;;;;;26.98;19.25;;;18.90;99.90;;;;;;5072553;28;20052;-69
2023/04/23 09:09:55;;;;;;;25.27;19.85;;;18.80;99.90;;;;;;5072727;28;20043;-69
2023/04/23 09:12:21;;;;;;;26.52;19.60;;;18.80;99.90;;;;;;5073138;28;20397;-69
2023/04/23 09:14:48;;;;;;;25.00;17.60;;;18.90;99.90;;;;;;5072963;28;20082;-69
2023/04/23 09:17:14;;;;;;;22.10;16.80;;;18.90;99.90;;;;;;5072733;28;20090;-69
2023/04/23 09:19:41;;;;;;;20.65;16.10;;;19.00;99.90;;;;;;5054863;28;20458;-68
2023/04/23 09:22:07;;;;;;;24.30;16.00;;;18.90;99.90;;;;;;5072492;28;20048;-69
2023/04/23 09:24:33;;;;;;;21.77;16.63;;;19.10;99.90;;;;;;5054776;28;20408;-68
2023/04/23 09:26:59;;;;;;;23.67;16.40;;;19.20;99.90;;;;;;5072394;28;20033;-69
2023/04/23 09:29:25;;;;;;;22.65;16.83;;;19.10;99.90;;;;;;5072598;28;20032;-68
2023/04/23 09:31:55;;;;;;;22.75;16.55;;;18.80;99.90;;;;;;5072436;28;20045;-68
2023/04/23 09:34:22;;;;;;;21.48;15.57;;;18.60;99.90;;;;;;5072561;28;20036;-68
2023/04/23 09:36:49;;;;;;;21.98;14.35;;;18.70;99.90;;;;;;5068143;28;20048;-68
2023/04/23 09:39:17;;;;;;;21.40;14.82;;;18.30;99.90;;;;;;5070285;28;20041;-68
2023/04/23 09:41:46;;;;;;;18.88;12.18;;;18.10;99.90;;;;;;5054461;28;20052;-69
2023/04/23 09:44:16;;;;;;;20.08;13.60;;;18.00;99.90;;;;;;5071966;28;20083;-68
2023/04/23 09:46:43;;;;;;;22.67;14.93;;;18.20;99.90;;;;;;5054016;28;20443;-67
2023/04/23 09:49:10;;;;;;;23.02;14.23;;;18.00;99.90;;;;;;5054089;28;20040;-67
2023/04/23 09:52:02;;;;;;;20.60;14.18;;;18.20;99.90;;;;;;5071440;28;20036;-68
2023/04/23 09:54:27;;;;;;;18.55;12.02;;;18.20;99.90;;;;;;5071507;28;20484;-67
2023/04/23 09:56:57;;;;;;;15.95;11.20;;;18.40;99.90;;;;;;5071338;28;20066;-68
2023/04/23 09:59:30;;;;;;;17.63;13.20;;;18.50;99.90;;;;;;5071668;28;20032;-67
2023/04/23 10:01:55;;;;;;;17.42;12.52;;;18.50;99.90;;;;;;5071580;28;20063;-68
2023/04/23 10:04:23;;;;;;;15.00;11.00;;;18.50;99.90;;;;;;5071757;28;20114;-68
2023/04/23 10:06:56;;;;;;;15.80;9.98;;;18.40;99.90;;;;;;5071355;28;20040;-68
2023/04/23 10:09:23;;;;;;;16.48;9.73;;;18.40;99.90;;;;;;5053378;28;20047;-68
2023/04/23 10:11:51;;;;;;;17.35;10.52;;;18.50;99.90;;;;;;5053874;28;20048;-68
2023/04/23 10:14:21;;;;;;;15.35;10.07;;;18.40;99.90;;;;;;5071392;28;20043;-68
2023/04/23 10:16:49;;;;;;;12.82;9.43;;;18.30;99.90;;;;;;5071236;28;20044;-67
2023/04/23 10:19:18;;;;;;;14.55;9.27;;;18.20;99.90;;;;;;5071199;28;20047;-68
2023/04/23 10:21:45;;;;;;;16.00;10.05;;;17.90;99.90;;;;;;5071350;28;20041;-67
2023/04/23 10:24:13;;;;;;;14.27;8.95;;;17.70;99.90;;;;;;5071219;28;20043;-67
2023/04/23 10:26:41;;;;;;;14.27;8.25;;;17.40;99.90;;;;;;5071022;28;20032;-67
2023/04/23 10:29:15;;;;;;;14.80;8.25;;;17.20;99.90;;;;;;5071066;28;20040;-67
2023/04/23 10:31:41;;;;;;;9.38;6.35;;;17.10;99.90;;;;;;5071434;28;20051;-68
2023/04/23 10:34:09;;;;;;;12.93;6.78;;;16.90;99.90;;;;;;5070687;28;20040;-68
2023/04/23 10:36:36;;;;;;;15.38;6.82;;;16.70;99.90;;;;;;5052919;28;20115;-68
2023/04/23 10:39:03;;;;;;;12.27;5.93;;;16.80;99.90;;;;;;5070927;28;20044;-68
2023/04/23 10:41:35;;;;;;;11.85;6.57;;;17.00;99.90;;;;;;5070892;28;20044;-68
2023/04/23 10:44:04;;;;;;;13.10;6.78;;;17.20;99.90;;;;;;5071324;28;20560;-68
2023/04/23 10:46:31;;;;;;;12.70;6.25;;;17.50;99.90;;;;;;5052592;28;20044;-68
2023/04/23 10:49:07;;;;;;;10.70;6.03;;;17.50;99.90;;;;;;5070646;28;20504;-68
2023/04/23 10:51:34;;;;;;;12.63;6.07;;;17.50;99.90;;;;;;5070703;28;20150;-68
2023/04/23 10:54:02;;;;;;;12.65;6.43;;;17.70;99.90;;;;;;5052874;28;20045;-68
2023/04/23 10:56:27;;;;;;;17.33;6.93;;;17.70;99.90;;;;;;5071122;28;20115;-68
2023/04/23 10:58:53;;;;;;;9.27;4.72;;;17.90;99.90;;;;;;5071053;28;20174;-68
2023/04/23 11:01:20;;;;;;;8.23;4.38;;;17.90;99.90;;;;;;5070872;28;20076;-68
2023/04/23 11:03:47;;;;;;;12.07;4.85;;;18.20;99.90;;;;;;5070932;28;20040;-69
2023/04/23 11:06:17;;;;;;;13.75;5.25;;;18.30;99.90;;;;;;5070913;28;20119;-68
2023/04/23 11:08:52;;;;;;;10.88;5.15;;;18.50;99.90;;;;;;5070901;28;20103;-68
2023/04/23 11:11:44;;;;;;;13.85;5.07;;;18.10;99.90;;;;;;5071300;28;20045;-68
2023/04/23 11:14:15;;;;;;;10.40;4.78;;;18.00;99.90;;;;;;5070090;28;20067;-68
2023/04/23 11:16:40;;;;;;;8.43;4.10;;;18.00;99.90;;;;;;5071007;28;20041;-68
2023/04/23 11:19:14;;;;;;;11.25;4.70;;;17.90;99.90;;;;;;5070718;28;20044;-68
2023/04/23 11:21:57;;;;;;;9.63;3.90;;;17.90;99.90;;;;;;5071053;28;20044;-68
2023/04/23 11:24:23;;;;;;;7.00;3.58;;;18.30;99.90;;;;;;5071076;28;20059;-68
2023/04/23 11:26:53;;;;;;;6.43;4.03;;;18.50;99.90;;;;;;5067136;28;20089;-68
2023/04/23 11:29:22;;;;;;;10.80;3.05;;;18.60;99.90;;;;;;5070241;28;20150;-70
2023/04/23 11:31:48;;;;;;;5.70;2.45;;;18.60;99.60;;;;;;5070790;28;20036;-68
2023/04/23 11:34:14;;;;;;;5.90;2.83;;;18.70;99.20;;;;;;5063867;28;20116;-68
2023/04/23 11:36:40;;;;;;;9.98;3.72;;;18.70;99.90;;;;;;5070670;28;20049;-68
2023/04/23 11:39:06;;;;;;;6.20;3.15;;;19.00;99.00;;;;;;5070701;28;20036;-68
2023/04/23 11:41:32;;;;;;;9.88;3.55;;;19.00;97.40;;;;;;5070928;28;20048;-68
2023/04/23 11:43:58;;;;;;;5.40;2.85;;;19.10;97.20;;;;;;5070736;28;20037;-68
2023/04/23 11:46:23;;;;;;;4.85;2.53;;;19.00;98.40;;;;;;5055705;28;20106;-68
2023/04/23 11:48:49;;;;;;;7.53;2.45;;;19.00;99.10;;;;;;5074441;28;20036;-68
2023/04/23 11:51:15;;;;;;;4.82;2.47;;;18.90;98.80;;;;;;5074317;28;20041;-68
2023/04/23 11:53:47;;;;;;;5.47;2.85;;;18.90;98.50;;;;;;5074323;28;20036;-68
2023/04/23 11:56:15;;;;;;;6.22;3.10;;;18.90;98.80;;;;;;5074067;28;20044;-68
2023/04/23 11:58:41;;;;;;;6.30;2.83;;;18.80;99.90;;;;;;5074050;28;20044;-68
2023/04/23 12:01:06;;;;;;;7.03;2.72;;;18.70;99.20;;;;;;5073978;28;20040;-68
2023/04/23 12:03:33;;;;;;;6.45;2.42;;;18.60;99.00;;;;;;5056261;28;20048;-68
2023/04/23 12:05:59;;;;;;;5.85;2.47;;;18.60;99.10;;;;;;5073982;28;20055;-68
2023/04/23 12:08:24;;;;;;;7.32;2.30;;;18.60;99.00;;;;;;5073982;28;20484;-68
2023/04/23 12:10:58;;;;;;;6.97;2.45;;;18.60;98.50;;;;;;5074060;28;20045;-68
2023/04/23 12:13:32;;;;;;;;;;;18.80;97.10;;;;;;5074375;28;20483;-68
2023/04/23 12:16:02;;;;;;;7.45;2.35;;;18.80;98.40;;;;;;5073858;28;19923;-68
2023/04/23 12:18:34;;;;;;;4.60;1.80;;;18.70;98.00;;;;;;5055307;28;20642;-68
2023/04/23 12:21:13;;;;;;;3.45;2.10;;;18.70;97.30;;;;;;5073340;28;20045;-68
2023/04/23 12:23:40;;;;;;;8.77;2.22;;;18.60;96.80;;;;;;5055569;28;20412;-67
2023/04/23 12:26:14;;;;;;;5.88;1.88;;;18.50;98.00;;;;;;5073483;28;20043;-67
2023/04/23 12:29:06;;;;;;;5.07;2.08;;;18.40;97.10;;;;;;5073833;28;20522;-68
2023/04/23 12:31:31;;;;;;;8.25;2.53;;;18.10;96.20;;;;;;5070146;28;20530;-68